Main page
Satellite images 15-day forecastsClimateMarine weather Cyclones Lightning AirportsFAQ Newsletter About
Weather : Europe Africa North America South America Asia Australia-Oceania Others
Languages Contact

Gdańsk, Poland

Lech Wałęsa

latitude: 54-23N, longitude: 018-28E, elevation: 135 m


METAR: EPGD 181730Z 11004KT CAVOK 16/08 Q1019
short-TAF: out of date (45876 hours)
long-TAF: EPGD 181730Z 1818/1918 11005KT CAVOK PROB30 1900/1906 4000 BR BECMG 1906/1908 17010KT

Time: 19:44 (17:44 UTC)

Current weather observation

The report was made 13 minutes ago, at 17:30 UTC  
Wind 04 kt from the East/Southeast
Temperature 16°C
Humidity 59%
Pressure 1019 hPa
Visibility 10 km or more
no clouds below 1500 m and no cumulonimbus

Change units

Forecast

The report was made 11 minutes ago, at 17:33 UTC  
Forecast valid from 18 at 18 UTC to 19 at 18 UTC
Wind 05 kt from the East/Southeast
Visibility 10 km or more
no clouds below 1500 m and no cumulonimbus
Probability 30%
from 19 at 00 UTC to 19 at 06 UTC
Visibility 4000 m
mist
Becoming
from 19 at 06 UTC to 19 at 08 UTC
Wind 10 kt from the South
The information on this site is subject to a disclaimer
Weather : Europe Africa North America South America Asia Australia-Oceania Others
Satellite images 15-day forecastsClimateMarine weather Cyclones Lightning AirportsFAQ Languages Contact Newsletter About